createdAt,value
2023-02-12T00:04:55.241Z,72.5
2023-02-12T00:10:45.065Z,64
2023-02-12T00:16:38.822Z,68.6
2023-02-12T00:22:45.319Z,68.4
2023-02-12T00:28:37.569Z,65
2023-02-12T00:34:48.552Z,72.9
2023-02-12T00:40:38.977Z,65.9
2023-02-12T00:46:29.281Z,62.3
2023-02-12T00:52:24.349Z,67.3
2023-02-12T00:58:28.835Z,63.3
2023-02-12T01:04:19.182Z,64.3
2023-02-12T01:10:13.023Z,62.4
2023-02-12T01:16:04.146Z,62
2023-02-12T01:21:54.066Z,59.6
2023-02-12T01:27:48.484Z,57.7
2023-02-12T01:33:39.808Z,62.2
2023-02-12T01:39:32.996Z,70.1
2023-02-12T01:45:27.462Z,66.1
2023-02-12T01:51:17.745Z,63.2
2023-02-12T01:57:14.452Z,74.2
2023-02-12T02:03:06.982Z,63.3
2023-02-12T02:09:02.269Z,63.4
2023-02-12T02:14:52.474Z,64.9
2023-02-12T02:20:45.712Z,64.7
2023-02-12T02:26:38.988Z,62.7
2023-02-12T02:32:29.309Z,63.8
2023-02-12T02:38:18.918Z,65.9
2023-02-12T02:44:13.459Z,64.2
2023-02-12T02:50:06.582Z,67.1
2023-02-12T02:55:58.260Z,76
2023-02-12T03:01:50.151Z,62.8
2023-02-12T03:07:45.881Z,64.5
2023-02-12T03:13:56.281Z,63.2
2023-02-12T03:19:46.968Z,62.2
2023-02-12T03:25:43.366Z,56.6
2023-02-12T03:31:32.096Z,61.2
2023-02-12T03:37:38.811Z,58.7
2023-02-12T03:43:31.971Z,60.5
2023-02-12T03:49:25.924Z,58.1
2023-02-12T03:55:16.377Z,67.5
2023-02-12T04:01:08.226Z,82.4
2023-02-12T04:07:05.851Z,82.3
2023-02-12T04:12:56.990Z,73.7
2023-02-12T04:18:50.971Z,106.1
2023-02-12T04:24:42.397Z,86.2
2023-02-12T04:30:42.986Z,88.7
2023-02-12T04:36:36.267Z,86.1
2023-02-12T04:42:30.689Z,86.4
2023-02-12T04:48:22.161Z,86.9
2023-02-12T04:54:14.837Z,80.9
2023-02-12T05:00:05.548Z,78.5
2023-02-12T05:05:57.198Z,75.9
2023-02-12T05:11:48.964Z,73.5
2023-02-12T05:17:49.759Z,74.6
2023-02-12T05:24:48.251Z,67.5
2023-02-12T09:36:33.794Z,105.8
2023-02-12T10:31:05.763Z,115.5
2023-02-12T10:43:54.207Z,107.4
2023-02-12T10:49:57.449Z,108.8
2023-02-12T10:56:15.847Z,104.6
2023-02-12T11:02:48.308Z,97.8
2023-02-12T11:15:07.959Z,90.6
2023-02-12T11:21:25.550Z,89.5
2023-02-12T11:28:03.402Z,88.5
2023-02-12T11:34:05.146Z,84.9
2023-02-12T11:53:08.083Z,75.6
2023-02-12T12:06:27.136Z,72.1
2023-02-12T12:19:07.784Z,64.2
2023-02-12T12:32:08.460Z,66.9
2023-02-12T12:50:02.533Z,70.4
2023-02-12T12:56:09.119Z,73.3
2023-02-12T13:08:31.307Z,67.7
2023-02-12T13:14:38.818Z,66.1
2023-02-12T13:26:24.592Z,66.4
2023-02-12T13:32:33.707Z,60.4
2023-02-12T13:38:27.997Z,59.6
2023-02-12T13:44:21.673Z,61.7
2023-02-12T14:03:56.021Z,59.9
2023-02-12T14:09:51.040Z,51
2023-02-12T14:15:41.184Z,59.6
2023-02-12T14:21:32.947Z,68.8
2023-02-12T14:27:23.297Z,51.7
2023-02-12T14:33:13.921Z,60.7
2023-02-12T14:39:06.528Z,56.9
2023-02-12T14:44:56.403Z,53.4
2023-02-12T14:50:48.191Z,55.4
2023-02-12T14:56:39.095Z,54.6
2023-02-12T15:02:30.594Z,55.6
2023-02-12T15:08:21.813Z,54.6
2023-02-12T15:14:16.703Z,56.4
2023-02-12T15:20:07.208Z,59.7
2023-02-12T15:26:04.698Z,64.5
2023-02-12T15:31:54.403Z,61
2023-02-12T15:37:46.103Z,61.9
2023-02-12T15:43:35.916Z,57.6
2023-02-12T15:49:26.815Z,58.3
2023-02-12T15:55:18.931Z,65.8
2023-02-12T16:01:10.505Z,62.4
2023-02-12T16:07:01.867Z,59.6
2023-02-12T16:12:53.511Z,57
2023-02-12T16:18:44.779Z,53.4
2023-02-12T16:24:38.570Z,54.4
2023-02-12T16:30:32.419Z,54.1
2023-02-12T16:36:22.928Z,54.8
2023-02-12T16:42:15.749Z,56.4
2023-02-12T16:48:06.433Z,55.2
2023-02-12T16:53:57.509Z,54.5
2023-02-12T16:59:48.385Z,53.1
2023-02-12T17:05:38.096Z,48.8
2023-02-12T17:11:28.390Z,51.6
2023-02-12T17:17:19.903Z,49.9
2023-02-12T17:23:11.022Z,46.2
2023-02-12T17:29:02.506Z,46.8
2023-02-12T17:34:53.832Z,41.5
2023-02-12T17:40:45.571Z,33.9
2023-02-12T17:46:35.995Z,31.6
2023-02-12T17:52:26.169Z,27.4
2023-02-12T17:58:16.912Z,23
2023-02-12T18:04:08.785Z,16.4
2023-02-12T18:09:59.769Z,10.6
2023-02-12T18:15:50.584Z,11.3
2023-02-12T18:21:40.426Z,10.3
2023-02-12T18:27:31.752Z,8.9
2023-02-12T18:33:21.966Z,9.9
2023-02-12T18:39:12.629Z,14.1
2023-02-12T18:45:04.414Z,18.6
2023-02-12T18:50:57.146Z,15.6
2023-02-12T18:56:48.420Z,13.1
2023-02-12T19:02:38.656Z,13.5
2023-02-12T19:08:29.366Z,12.3
2023-02-12T19:14:20.216Z,12.8
2023-02-12T19:20:11.337Z,12.3
2023-02-12T19:26:01.192Z,12.3
2023-02-12T19:31:52.513Z,14.1
2023-02-12T19:37:42.741Z,14.9
2023-02-12T19:43:33.423Z,11.3
2023-02-12T19:49:23.770Z,15
2023-02-12T19:55:14.318Z,14.7
2023-02-12T20:01:04.296Z,14.8
2023-02-12T20:06:55.244Z,15.5
2023-02-12T20:12:45.481Z,16.6
2023-02-12T20:18:35.669Z,16.5
2023-02-12T20:24:26.345Z,16.2
2023-02-12T20:30:16.673Z,14.7
2023-02-12T20:36:07.969Z,15
2023-02-12T20:41:59.296Z,16.2
2023-02-12T20:47:49.439Z,16.4
2023-02-12T20:53:40.116Z,16.1
2023-02-12T20:59:30.156Z,16.9
2023-02-12T21:05:20.971Z,17.2
2023-02-12T21:11:11.038Z,18.8
2023-02-12T21:17:02.896Z,20.3
2023-02-12T21:22:53.315Z,22
2023-02-12T21:28:43.800Z,24.7
2023-02-12T21:34:38.762Z,23.4
2023-02-12T21:40:29.505Z,24.7
2023-02-12T21:46:21.424Z,23.7
2023-02-12T21:52:14.574Z,23.9
2023-02-12T21:58:09.089Z,26.8
2023-02-12T22:04:01.372Z,25.5
2023-02-12T22:09:53.197Z,28
2023-02-12T22:15:43.377Z,27.4
2023-02-12T22:21:34.172Z,28.9
2023-02-12T22:27:26.959Z,33.7
2023-02-12T22:33:18.409Z,31.9
2023-02-12T22:39:10.250Z,37
2023-02-12T22:45:00.790Z,38.6
2023-02-12T22:50:51.414Z,38
2023-02-12T22:56:42.791Z,38.9
2023-02-12T23:02:33.448Z,38.3
2023-02-12T23:08:26.473Z,37.3
2023-02-12T23:14:16.044Z,40.3
2023-02-12T23:20:06.137Z,38.7
2023-02-12T23:25:55.170Z,36
2023-02-12T23:31:47.594Z,37.2
2023-02-12T23:37:36.791Z,37.3
2023-02-12T23:43:26.098Z,34.8
2023-02-12T23:49:27.327Z,35
2023-02-12T23:55:17.661Z,34.6
